Time;durP1;ratioP1;P1;durP2;ratioP2;P2;SDS_P1;SDS_P2;PMS_P1;PMS_P2;Temp;Humidity;BMP_temperature;BMP_pressure;BME280_temperature;BME280_humidity;BME280_pressure;Samples;Min_cycle;Max_cycle;Signal;HPM_P1;HPM_P2
2022/06/06 00:01:45;;;;;;;4.45;2.60;;;;;;;20.74;66.48;64148.56;5044105;28;20233;-78
2022/06/06 00:04:14;;;;;;;3.72;2.83;;;;;;;20.75;65.94;64146.50;5044357;28;20217;-77
2022/06/06 00:06:41;;;;;;;3.85;2.78;;;;;;;20.80;65.92;64160.00;5045064;28;20201;-77
2022/06/06 00:09:09;;;;;;;3.03;2.47;;;;;;;20.81;65.42;64155.88;5039808;28;20224;-77
2022/06/06 00:11:38;;;;;;;2.70;2.50;;;;;;;20.79;65.58;64151.19;5033963;28;20494;-77
2022/06/06 00:14:06;;;;;;;4.20;2.83;;;;;;;20.82;66.64;64154.34;5034142;28;20256;-76
2022/06/06 00:16:35;;;;;;;2.95;2.80;;;;;;;20.85;67.49;64157.47;5040583;28;20202;-76
2022/06/06 00:19:02;;;;;;;4.65;3.15;;;;;;;20.82;66.97;64156.91;5046437;28;20290;-77
2022/06/06 00:21:31;;;;;;;6.85;2.13;;;;;;;20.78;63.64;64152.75;5045422;28;20627;-77
2022/06/06 00:23:59;;;;;;;3.38;3.10;;;;;;;20.68;65.58;64140.25;5037660;28;20241;-76
2022/06/06 00:26:28;;;;;;;5.78;3.60;;;;;;;20.66;66.05;64140.75;5032889;28;20536;-77
2022/06/06 00:28:56;;;;;;;2.50;2.30;;;;;;;20.66;65.02;64137.63;5044700;28;20400;-77
2022/06/06 00:36:53;;;;;;;4.10;2.30;;;;;;;20.55;64.36;64126.66;5041716;28;20223;-77
2022/06/06 00:39:20;;;;;;;2.45;2.30;;;;;;;20.49;63.64;64123.00;5041565;28;20451;-76
2022/06/06 00:41:50;;;;;;;2.40;2.20;;;;;;;20.45;65.14;64118.28;5044401;28;20225;-77
2022/06/06 00:44:19;;;;;;;2.40;2.20;;;;;;;20.48;65.60;64121.94;5045181;28;20220;-77
2022/06/06 00:46:52;;;;;;;2.95;2.75;;;;;;;20.54;64.72;64125.09;5043942;28;20189;-77
2022/06/06 00:49:25;;;;;;;2.72;2.53;;;;;;;20.59;65.21;64132.91;5040380;28;20428;-78
2022/06/06 00:51:54;;;;;;;5.10;2.40;;;;;;;20.57;65.46;64131.34;5044626;28;20186;-75
2022/06/06 00:54:23;;;;;;;3.58;2.60;;;;;;;20.59;64.87;64132.91;5044528;28;20259;-77
2022/06/06 00:56:54;;;;;;;2.40;2.20;;;;;;;20.55;65.53;64129.25;5038160;28;20201;-76
2022/06/06 00:59:27;;;;;;;3.20;2.92;;;;;;;20.57;66.53;64128.25;5038467;28;20224;-76
2022/06/06 01:01:55;;;;;;;3.25;2.85;;;;;;;20.62;67.02;64136.56;5041512;28;20228;-79
2022/06/06 01:04:25;;;;;;;2.50;2.28;;;;;;;20.66;67.00;64142.81;5045291;28;20410;-77
2022/06/06 01:06:54;;;;;;;3.05;2.85;;;;;;;20.73;66.74;64149.59;5043670;28;20216;-76
2022/06/06 01:09:24;;;;;;;6.22;2.90;;;;;;;20.64;67.97;64135.53;5043783;28;20263;-76
2022/06/06 01:11:56;;;;;;;3.38;3.15;;;;;;;20.76;68.10;64150.66;5046088;28;20287;-77
2022/06/06 01:14:28;;;;;;;3.22;2.60;;;;;;;20.78;67.92;64152.22;5046662;28;20221;-76
2022/06/06 01:17:02;;;;;;;4.47;2.92;;;;;;;20.87;67.46;64162.13;5040392;28;20198;-76
2022/06/06 01:19:59;;;;;;;6.93;2.85;;;;;;;20.86;66.33;64161.09;5032999;28;20280;-77
2022/06/06 01:23:12;;;;;;;3.65;2.58;;;;;;;20.87;64.40;64162.13;5036087;28;20622;-76
2022/06/06 01:26:24;;;;;;;8.43;3.03;;;;;;;20.91;63.90;64166.31;5037841;28;20251;-77
2022/06/06 01:28:57;;;;;;;4.75;3.50;;;;;;;20.88;69.71;64163.19;4990413;28;20222;-76
2022/06/06 01:31:31;;;;;;;3.03;2.78;;;;;;;20.82;66.84;64154.34;5023661;28;20209;-76
2022/06/06 01:34:00;;;;;;;2.72;2.53;;;;;;;20.82;68.41;64156.41;5041010;28;20217;-77
2022/06/06 01:36:29;;;;;;;3.53;2.53;;;;;;;20.83;72.03;64152.28;5040010;28;20217;-76
2022/06/06 01:38:58;;;;;;;2.50;2.35;;;;;;;20.84;71.52;64156.41;5044024;28;20224;-76
2022/06/06 01:41:32;;;;;;;6.20;3.08;;;;;;;20.89;74.37;64163.69;5037931;28;20528;-77
2022/06/06 01:44:07;;;;;;;3.85;3.47;;;;;;;20.60;80.51;64137.06;5041802;28;20217;-77
2022/06/06 01:46:37;;;;;;;4.97;4.30;;;;;;;20.41;84.59;64106.38;5051035;28;20189;-76
2022/06/06 01:49:07;;;;;;;5.43;3.42;;;;;;;20.60;74.83;64131.88;5051534;28;20237;-76
2022/06/06 01:51:34;;;;;;;8.60;3.70;;;;;;;20.58;82.06;64131.88;5053994;28;20209;-76
2022/06/06 05:54:04;;;;;;;8.80;5.88;;;;;;;20.25;100.00;64094.84;5042297;22;1287471;-73
2022/06/06 05:56:56;;;;;;;7.72;5.93;;;;;;;20.28;100.00;64101.06;5028319;28;20245;-73
2022/06/06 05:59:44;;;;;;;10.52;6.40;;;;;;;19.76;100.00;64044.19;5040375;28;20236;-74
2022/06/06 06:02:39;;;;;;;10.88;5.68;;;;;;;19.93;100.00;64064.00;5029419;28;20237;-74
2022/06/06 06:05:15;;;;;;;12.23;6.05;;;;;;;20.20;100.00;64089.63;5037825;28;20267;-73
2022/06/06 06:07:52;;;;;;;7.45;5.47;;;;;;;20.00;100.00;64068.72;5023685;28;20213;-74
2022/06/06 06:10:27;;;;;;;16.63;5.68;;;;;;;20.02;100.00;64076.00;5024832;28;20248;-74
2022/06/06 06:13:15;;;;;;;9.93;5.55;;;;;;;20.01;100.00;64067.72;5043437;28;20189;-74
2022/06/06 06:15:43;;;;;;;7.97;6.05;;;;;;;20.26;100.00;64095.88;5035657;28;20209;-75
2022/06/06 06:18:14;;;;;;;9.98;4.90;;;;;;;20.28;100.00;64095.38;5041494;28;20197;-75
2022/06/06 06:20:48;;;;;;;8.45;5.13;;;;;;;20.09;100.00;64078.09;5025117;28;20187;-74
2022/06/06 06:23:19;;;;;;;11.02;5.85;;;;;;;20.29;100.00;64099.53;5033712;28;20833;-73
2022/06/06 06:25:50;;;;;;;11.15;4.90;;;;;;;20.66;100.00;64135.03;5024749;28;20244;-74
2022/06/06 06:28:16;;;;;;;9.90;5.80;;;;;;;20.39;100.00;64106.84;5033538;28;20411;-73
2022/06/06 06:30:56;;;;;;;8.45;4.63;;;;;;;20.29;100.00;64099.53;5026361;28;20293;-73
2022/06/06 06:33:47;;;;;;;6.97;4.40;;;;;;;20.26;100.00;64098.47;5026216;28;20307;-74
2022/06/06 06:36:24;;;;;;;7.47;5.03;;;;;;;20.59;100.00;64127.72;5028434;28;20510;-74
2022/06/06 06:39:10;;;;;;;9.80;5.10;;;;;;;20.79;100.00;64151.19;5041508;28;20512;-75
2022/06/06 06:41:51;;;;;;;9.20;5.18;;;;;;;20.35;100.00;64103.22;5036588;28;20228;-75
2022/06/06 06:44:26;;;;;;;10.32;5.60;;;;;;;20.32;100.00;64102.13;5026490;28;20564;-75
2022/06/06 06:46:57;;;;;;;11.40;6.07;;;;;;;20.03;100.00;64074.97;5030528;28;20201;-74
2022/06/06 06:49:36;;;;;;;10.70;6.57;;;;;;;20.09;100.00;64075.53;5033913;28;20240;-74
2022/06/06 06:52:15;;;;;;;15.23;7.32;;;;;;;19.87;100.00;64060.31;5031486;28;20212;-75
2022/06/06 06:55:08;;;;;;;12.27;6.90;;;;;;;19.82;100.00;64050.47;5027806;28;20243;-74
2022/06/06 06:57:53;;;;;;;18.80;7.68;;;;;;;20.25;100.00;64092.25;5040684;28;20202;-75
2022/06/06 07:00:22;;;;;;;8.68;6.68;;;;;;;20.55;100.00;64126.66;5032460;28;20221;-74
2022/06/06 07:09:00;;;;;;;9.27;6.15;;;;;;;21.47;100.00;64222.22;5033357;28;20580;-75
2022/06/06 07:11:44;;;;;;;15.13;7.07;;;;;;;21.76;100.00;64252.00;5029911;28;20233;-74
2022/06/06 07:14:29;;;;;;;9.23;6.03;;;;;;;21.66;100.00;64244.16;5042190;28;20217;-75
2022/06/06 07:16:58;;;;;;;16.30;6.28;;;;;;;21.65;100.00;64241.03;5030541;28;20245;-75
2022/06/06 07:19:32;;;;;;;14.45;7.10;;;;;;;21.64;100.00;64244.66;5032022;28;20577;-75
2022/06/06 07:22:03;;;;;;;7.75;6.07;;;;;;;21.79;100.00;64255.66;5038974;28;20267;-74
2022/06/06 07:45:42;;;;;;;15.10;8.13;;;;;;;22.48;100.00;64329.34;4841807;29;20246;-78
2022/06/06 07:48:33;;;;;;;11.02;7.90;;;;;;;22.75;100.00;64352.41;4889475;28;20247;-77
2022/06/06 07:51:09;;;;;;;8.40;7.70;;;;;;;22.88;100.00;64371.19;5025724;28;20259;-77
2022/06/06 07:53:40;;;;;;;14.88;8.50;;;;;;;;;;5036815;28;20537;-78
2022/06/06 07:56:14;;;;;;;15.13;9.10;;;;;;;22.82;100.00;64362.31;5035483;28;20201;-79
2022/06/06 07:58:53;;;;;;;17.00;8.63;;;;;;;22.61;100.00;64340.34;5044902;28;20236;-79
2022/06/06 08:01:27;;;;;;;16.70;8.35;;;;;;;22.78;100.00;64360.72;5039486;28;20221;-79
2022/06/06 08:04:07;;;;;;;11.98;8.07;;;;;;;22.79;100.00;64359.72;5040369;28;20532;-79
2022/06/06 08:06:40;;;;;;;11.85;8.57;;;;;;;23.11;100.00;64397.84;5047888;28;20194;-80
2022/06/06 08:09:34;;;;;;;14.57;8.63;;;;;;;23.67;100.00;64453.84;5042911;28;20232;-79
2022/06/06 08:12:20;;;;;;;16.00;10.05;;;;;;;24.28;100.00;64516.69;5040636;28;20218;-79
2022/06/06 08:15:04;;;;;;;16.95;8.90;;;;;;;24.15;100.00;64500.97;5041377;28;20263;-79
2022/06/06 08:17:44;;;;;;;19.90;11.35;;;;;;;24.07;100.00;64492.09;5041097;28;20506;-78
2022/06/06 08:20:19;;;;;;;16.65;10.93;;;;;;;23.93;100.00;64475.88;5037461;28;20213;-79
2022/06/06 08:22:47;;;;;;;18.05;10.93;;;;;;;23.84;100.00;64469.03;5041463;28;20193;-80
2022/06/06 08:25:17;;;;;;;19.40;11.43;;;;;;;23.36;100.00;64418.81;5039631;28;20486;-80
2022/06/06 08:27:47;;;;;;;19.40;10.75;;;;;;;23.29;100.00;64411.50;5039816;28;20229;-79
2022/06/06 08:30:14;;;;;;;19.65;11.43;;;;;;;23.00;100.00;64383.75;5037958;28;20241;-80
2022/06/06 08:32:42;;;;;;;14.13;8.13;;;;;;;23.20;100.00;64407.25;5036541;28;20233;-79
2022/06/06 08:35:13;;;;;;;18.27;7.75;;;;;;;23.46;100.00;64426.16;5038523;28;20277;-80
2022/06/06 08:38:16;;;;;;;13.77;7.10;;;;;;;23.88;100.00;64472.72;5045730;28;20221;-80
2022/06/06 08:41:07;;;;;;;6.90;4.80;;;;;;;23.50;94.24;64433.47;5044624;28;20198;-81
2022/06/06 08:44:00;;;;;;;17.30;4.55;;;;;;;23.54;94.79;64439.75;5038457;28;20222;-81
2022/06/06 08:47:00;;;;;;;4.88;4.45;;;;;;;23.66;95.58;64452.28;5043993;28;20194;-80
2022/06/06 08:53:31;;;;;;;9.38;4.65;;;;;;;23.54;92.53;64439.75;5040912;28;20209;-81
2022/06/06 08:56:31;;;;;;;14.20;5.10;;;;;;;23.28;91.13;64409.94;5043903;28;20212;-82
2022/06/06 08:59:35;;;;;;;13.27;5.13;;;;;;;23.08;97.07;64389.50;5048762;28;20221;-81
2022/06/06 09:02:35;;;;;;;14.45;4.50;;;;;;;23.06;97.58;64386.88;5041147;28;20189;-79
2022/06/06 09:05:38;;;;;;;13.13;5.03;;;;;;;22.95;100.00;64378.00;5042228;28;20218;-80
2022/06/06 14:47:52;;;;;;;5.40;4.30;;;;;;;21.91;100.00;64267.69;5120814;27;20831;-77
2022/06/06 14:53:24;;;;;;;4.40;4.10;;;;;;;22.36;100.00;64316.81;5059074;28;20203;-77
2022/06/06 14:55:54;;;;;;;7.72;5.25;;;;;;;22.42;100.00;64323.06;5059620;28;20225;-78
2022/06/06 14:58:24;;;;;;;7.00;4.55;;;;;;;22.32;98.59;64312.63;5074348;28;20188;-77
2022/06/06 15:00:54;;;;;;;5.07;4.68;;;;;;;22.20;99.92;64300.06;5084233;28;20235;-77
2022/06/06 15:03:35;;;;;;;8.25;5.00;;;;;;;22.09;100.00;64286.50;5099946;28;20222;-79
2022/06/06 15:06:07;;;;;;;4.82;4.43;;;;;;;22.30;98.69;64311.06;5087704;28;20227;-79
2022/06/06 15:08:39;;;;;;;5.22;4.82;;;;;;;22.50;91.07;64326.75;5081425;28;20203;-79
2022/06/06 15:11:12;;;;;;;4.88;4.57;;;;;;;22.57;90.05;64338.78;5082765;28;20581;-79
2022/06/06 15:13:48;;;;;;;5.05;4.63;;;;;;;22.47;88.70;64328.81;5082007;28;20193;-78
2022/06/06 15:16:18;;;;;;;5.22;4.68;;;;;;;22.66;88.96;64346.09;5081494;28;20212;-80
2022/06/06 15:18:51;;;;;;;5.25;4.32;;;;;;;22.47;85.80;64323.09;5081460;28;20223;-78
2022/06/06 15:21:18;;;;;;;6.55;4.57;;;;;;;22.46;84.99;64322.06;5082068;28;20249;-78
2022/06/06 15:23:53;;;;;;;7.97;4.65;;;;;;;22.18;85.74;64295.38;5081219;28;20193;-80
2022/06/06 15:26:29;;;;;;;5.50;4.80;;;;;;;22.08;87.51;64287.53;5101779;28;20511;-80
2022/06/06 15:29:05;;;;;;;5.30;4.90;;;;;;;22.04;92.04;64278.19;5106341;28;20187;-78
2022/06/06 15:31:48;;;;;;;5.03;4.50;;;;;;;22.02;91.73;64276.59;5089817;28;20212;-77
2022/06/06 15:34:31;;;;;;;5.00;4.57;;;;;;;22.04;93.63;64278.69;5091867;28;20199;-79
2022/06/06 15:37:08;;;;;;;5.65;4.40;;;;;;;21.86;89.80;64256.75;5105819;28;20215;-78
2022/06/06 15:39:45;;;;;;;5.35;4.68;;;;;;;22.01;92.41;64280.75;5099528;28;20257;-77
2022/06/06 15:42:22;;;;;;;5.50;5.00;;;;;;;22.03;89.11;64279.72;5087526;28;20478;-80
2022/06/06 15:45:04;;;;;;;5.07;4.47;;;;;;;22.24;92.37;64301.66;5082585;28;20247;-79
2022/06/06 15:47:42;;;;;;;5.22;4.72;;;;;;;22.27;95.20;64305.31;5084139;28;20235;-80
2022/06/06 15:50:26;;;;;;;5.60;5.10;;;;;;;22.40;94.61;64321.00;5083748;28;20188;-79
2022/06/06 15:53:04;;;;;;;5.05;4.40;;;;;;;22.45;90.95;64326.22;5087373;28;20288;-78
2022/06/06 15:55:37;;;;;;;5.10;4.70;;;;;;;22.42;89.50;64317.88;5083051;28;20198;-80
2022/06/06 15:58:18;;;;;;;7.13;5.28;;;;;;;22.39;90.86;64319.94;5074498;28;20424;-80
2022/06/06 16:00:55;;;;;;;5.47;4.90;;;;;;;22.29;90.64;64304.81;5068817;28;20264;-80
2022/06/06 16:03:39;;;;;;;5.55;5.05;;;;;;;22.26;95.07;64309.47;5073726;28;20201;-80
2022/06/06 16:06:09;;;;;;;5.18;4.78;;;;;;;22.29;100.00;64306.88;5070168;28;20243;-79
2022/06/06 16:08:51;;;;;;;6.90;5.05;;;;;;;22.23;100.00;64303.19;5070455;28;20192;-80
2022/06/06 16:11:32;;;;;;;5.35;4.82;;;;;;;22.06;100.00;64283.38;5082393;28;20446;-79
2022/06/06 16:14:26;;;;;;;5.88;4.97;;;;;;;21.93;100.00;64269.78;5092514;28;20253;-78
2022/06/06 16:16:54;;;;;;;6.72;5.50;;;;;;;21.98;100.00;64271.91;5093535;28;20239;-80
2022/06/06 16:19:33;;;;;;;6.55;5.18;;;;;;;21.96;100.00;64272.94;5088138;28;20209;-77
2022/06/06 16:22:10;;;;;;;6.25;5.68;;;;;;;22.01;100.00;64277.63;5081553;28;20286;-80
2022/06/06 16:24:50;;;;;;;7.38;5.22;;;;;;;21.95;100.00;64273.94;5069174;28;20197;-79
2022/06/06 16:27:23;;;;;;;6.68;6.03;;;;;;;21.77;100.00;64253.59;5072352;28;20254;-82
2022/06/06 16:30:02;;;;;;;7.40;5.30;;;;;;;21.55;100.00;64230.06;5086093;28;20226;-81
2022/06/06 16:32:41;;;;;;;8.45;5.78;;;;;;;21.63;100.00;64238.41;5093259;28;20216;-81
2022/06/06 16:35:32;;;;;;;6.47;5.88;;;;;;;21.60;100.00;64233.22;5093326;28;20196;-81
2022/06/06 16:38:09;;;;;;;6.43;5.75;;;;;;;21.71;100.00;64246.78;5087396;28;20253;-82
2022/06/06 16:40:51;;;;;;;6.95;6.22;;;;;;;21.73;100.00;64248.88;5086334;28;20199;-84
2022/06/06 16:50:07;;;;;;;7.28;6.18;;;;;;;21.44;100.00;64218.56;5071700;28;20211;-82
2022/06/06 16:52:45;;;;;;;6.32;5.72;;;;;;;21.46;100.00;64221.19;5074316;28;20370;-83
2022/06/06 16:55:20;;;;;;;9.13;5.60;;;;;;;21.46;100.00;64221.19;5076020;28;20227;-81
2022/06/06 16:57:58;;;;;;;6.50;5.15;;;;;;;21.33;100.00;64204.50;5076522;28;20220;-83
2022/06/06 17:00:31;;;;;;;5.93;5.22;;;;;;;21.34;100.00;64211.25;5074510;28;20197;-82
2022/06/06 17:03:00;;;;;;;6.00;5.38;;;;;;;21.22;100.00;64198.19;5074890;28;20217;-82
2022/06/06 17:08:54;;;;;;;6.68;4.80;;;;;;;21.00;100.00;64172.63;5095125;28;20191;-82
2022/06/06 17:11:38;;;;;;;7.53;5.82;;;;;;;20.86;100.00;64158.00;5086954;28;20443;-83
2022/06/06 17:14:12;;;;;;;10.52;5.88;;;;;;;20.76;100.00;64144.97;5074226;28;20205;-82
2022/06/06 17:17:02;;;;;;;9.45;6.05;;;;;;;20.70;100.00;64144.38;5077392;28;20286;-83
2022/06/06 17:19:41;;;;;;;6.25;5.65;;;;;;;20.61;100.00;64135.00;5075384;28;20225;-83
2022/06/06 17:22:12;;;;;;;8.80;5.63;;;;;;;20.47;100.00;64123.50;5074998;28;20220;-82
2022/06/06 17:25:00;;;;;;;7.70;5.43;;;;;;;20.41;100.00;64112.06;5085569;28;20204;-82
2022/06/06 17:27:43;;;;;;;9.25;6.00;;;;;;;20.30;100.00;64103.16;5093457;28;20252;-82
2022/06/06 17:30:22;;;;;;;5.93;5.30;;;;;;;20.25;100.00;64097.94;5081913;28;20203;-83
2022/06/06 17:32:54;;;;;;;6.47;5.20;;;;;;;20.12;100.00;64078.66;5074277;28;20216;-81
2022/06/06 17:35:29;;;;;;;7.45;6.28;;;;;;;20.04;100.00;64072.91;5075085;28;20223;-83
2022/06/06 17:38:20;;;;;;;8.20;5.80;;;;;;;19.93;100.00;64059.34;5095963;28;20200;-84
2022/06/06 17:41:06;;;;;;;9.13;5.57;;;;;;;19.78;100.00;64040.59;5091403;28;20240;-82
2022/06/06 17:43:42;;;;;;;8.75;6.28;;;;;;;19.78;100.00;64045.75;5081943;28;20200;-82
2022/06/06 17:46:16;;;;;;;15.48;7.80;;;;;;;19.73;100.00;64043.66;5095851;28;20211;-83
2022/06/06 17:48:59;;;;;;;10.55;7.13;;;;;;;19.70;100.00;64032.25;5096854;28;20214;-83
2022/06/06 17:51:51;;;;;;;10.50;7.15;;;;;;;19.50;100.00;64015.03;5078330;28;20431;-83
2022/06/06 17:54:36;;;;;;;8.40;7.60;;;;;;;19.67;100.00;64034.31;5092198;28;20193;-82
2022/06/06 17:57:27;;;;;;;12.05;7.50;;;;;;;19.67;100.00;64029.13;5097566;28;20208;-82
2022/06/06 18:00:05;;;;;;;11.13;7.13;;;;;;;19.65;100.00;64030.16;5084054;28;20508;-83
2022/06/06 18:03:19;;;;;;;18.45;10.10;;;;;;;19.53;100.00;64023.31;5083152;28;20216;-82
2022/06/06 18:05:59;;;;;;;12.95;6.95;;;;;;;19.38;100.00;64007.16;5076253;28;20200;-84
2022/06/06 18:09:04;;;;;;;8.60;5.38;;;;;;;19.26;100.00;63995.13;5091703;28;20214;-82
2022/06/06 18:11:48;;;;;;;8.77;6.90;;;;;;;19.22;100.00;63988.38;5085409;28;20303;-83
2022/06/06 18:14:27;;;;;;;7.53;6.03;;;;;;;19.14;100.00;63982.09;5073065;28;20215;-82
2022/06/06 18:17:03;;;;;;;10.77;5.55;;;;;;;19.06;100.00;63971.19;5070348;28;20232;-82
2022/06/06 18:19:34;;;;;;;7.47;6.35;;;;;;;19.08;100.00;63973.28;5075647;28;20381;-82
2022/06/06 18:22:02;;;;;;;7.10;6.38;;;;;;;19.04;100.00;63972.22;5073683;28;20223;-83
2022/06/06 18:24:32;;;;;;;7.97;5.97;;;;;;;19.09;100.00;63974.84;5072334;28;20254;-82
2022/06/06 18:27:02;;;;;;;7.72;6.10;;;;;;;18.98;100.00;63965.44;5086257;28;20253;-81
2022/06/06 18:29:40;;;;;;;8.68;7.32;;;;;;;19.08;100.00;63975.84;5091705;28;20217;-81
2022/06/06 18:32:17;;;;;;;12.82;8.68;;;;;;;18.98;100.00;63963.34;5095164;28;20234;-81
2022/06/06 18:35:00;;;;;;;17.45;8.23;;;;;;;18.76;100.00;63945.59;5082291;28;20397;-77
2022/06/06 18:37:30;;;;;;;25.00;9.63;;;;;;;18.57;100.00;63920.63;5083464;28;20300;-78
2022/06/06 18:39:59;;;;;;;13.05;8.60;;;;;;;18.39;100.00;63902.38;5075364;28;20245;-77
2022/06/06 18:42:29;;;;;;;16.00;9.18;;;;;;;18.34;100.00;63902.31;5065349;28;20224;-78
2022/06/06 18:44:59;;;;;;;12.43;9.98;;;;;;;18.22;100.00;63882.06;5080008;28;20422;-77
2022/06/06 18:47:37;;;;;;;8.65;7.85;;;;;;;18.19;100.00;63876.38;5084588;28;20500;-78
2022/06/06 18:50:21;;;;;;;8.52;7.72;;;;;;;18.16;100.00;63877.88;5077135;28;20201;-80
2022/06/06 18:52:52;;;;;;;13.85;8.90;;;;;;;18.11;100.00;63870.63;5067701;28;20440;-78
2022/06/06 18:55:19;;;;;;;11.05;7.80;;;;;;;18.10;100.00;63874.22;5072208;28;20189;-80
2022/06/06 18:57:58;;;;;;;13.85;10.52;;;;;;;18.04;100.00;63865.91;5069530;28;20289;-78
2022/06/06 19:00:30;;;;;;;9.32;8.20;;;;;;;18.01;100.00;63859.69;5074453;28;20262;-78
2022/06/06 19:03:01;;;;;;;11.55;8.85;;;;;;;17.94;100.00;63858.06;5077897;28;20200;-79
2022/06/06 19:05:33;;;;;;;15.68;9.48;;;;;;;17.85;100.00;63843.03;5075106;28;20226;-78
2022/06/06 19:08:02;;;;;;;15.05;9.10;;;;;;;17.85;100.00;63845.59;5083844;28;20224;-80
2022/06/06 19:10:34;;;;;;;8.73;7.75;;;;;;;17.76;100.00;63836.22;5071891;28;20223;-79
2022/06/06 19:13:03;;;;;;;8.40;7.47;;;;;;;17.69;100.00;63828.94;5087422;28;20193;-79
2022/06/06 19:15:36;;;;;;;11.38;7.30;;;;;;;17.67;100.00;63827.38;5076069;28;20493;-78
2022/06/06 19:18:22;;;;;;;11.23;7.07;;;;;;;17.60;100.00;63822.66;5073920;28;20184;-79
2022/06/06 19:20:54;;;;;;;10.45;6.60;;;;;;;17.53;100.00;63810.22;5069833;28;20424;-80
2022/06/06 19:23:24;;;;;;;10.45;7.85;;;;;;;17.50;100.00;63804.00;5072084;28;20194;-80
2022/06/06 19:25:55;;;;;;;7.70;6.50;;;;;;;17.44;100.00;63797.72;5092853;28;20223;-77
2022/06/06 19:28:29;;;;;;;7.90;7.10;;;;;;;17.46;100.00;63802.94;5091656;28;20512;-78
2022/06/06 19:31:14;;;;;;;11.23;6.90;;;;;;;17.48;100.00;63810.16;5083610;28;20216;-78
2022/06/06 19:33:47;;;;;;;7.45;6.75;;;;;;;17.40;100.00;63801.28;5091561;28;20214;-79
2022/06/06 19:36:21;;;;;;;7.78;6.40;;;;;;;17.33;100.00;63787.31;5105825;28;20299;-78
2022/06/06 19:38:48;;;;;;;8.65;6.47;;;;;;;17.16;100.00;63774.78;5101437;28;20211;-78
2022/06/06 19:41:26;;;;;;;8.77;6.15;;;;;;;17.23;100.00;63776.91;5095148;28;20550;-79
2022/06/06 19:43:56;;;;;;;7.88;7.07;;;;;;;17.17;100.00;63773.25;5103993;28;20219;-79
2022/06/06 19:46:29;;;;;;;6.35;5.75;;;;;;;17.12;100.00;63764.94;5096292;28;20547;-80
2022/06/06 19:49:03;;;;;;;7.18;6.53;;;;;;;17.08;100.00;63760.78;5093309;28;20457;-79
2022/06/06 19:51:36;;;;;;;8.38;6.85;;;;;;;16.97;100.00;63757.56;5096835;28;20227;-79
2022/06/06 19:54:08;;;;;;;6.15;5.63;;;;;;;16.87;100.00;63741.50;5096318;28;20196;-78
2022/06/06 19:56:44;;;;;;;7.15;6.43;;;;;;;16.81;100.00;63735.78;5099305;28;20262;-79
2022/06/06 19:59:16;;;;;;;5.93;5.43;;;;;;;16.76;100.00;63733.13;5091911;28;20198;-77
2022/06/06 20:01:44;;;;;;;7.35;5.85;;;;;;;16.71;100.00;63722.78;5096957;28;20212;-78
2022/06/06 20:04:23;;;;;;;7.22;6.63;;;;;;;16.68;100.00;63719.69;5100209;28;20199;-78
2022/06/06 20:06:53;;;;;;;7.03;6.43;;;;;;;16.64;100.00;63714.97;5091996;28;20421;-77
2022/06/06 20:09:24;;;;;;;9.40;6.50;;;;;;;16.58;100.00;63706.19;5090318;28;20193;-78
2022/06/06 20:11:56;;;;;;;6.53;5.93;;;;;;;16.62;100.00;63716.00;5095092;28;20216;-78
2022/06/06 20:14:27;;;;;;;6.50;5.93;;;;;;;16.58;100.00;63711.31;5096058;28;20489;-78
2022/06/06 20:17:00;;;;;;;6.75;6.15;;;;;;;16.53;100.00;63706.13;5098035;28;20215;-79
2022/06/06 20:19:35;;;;;;;7.13;6.47;;;;;;;16.52;100.00;63707.66;5103307;28;20431;-77
2022/06/06 20:22:05;;;;;;;11.45;6.28;;;;;;;16.42;100.00;63695.19;5105785;28;20228;-78
2022/06/06 20:24:41;;;;;;;9.23;5.97;;;;;;;16.36;100.00;63688.94;5075189;28;20197;-77
2022/06/06 20:27:19;;;;;;;8.93;7.20;;;;;;;16.35;100.00;63692.50;5077979;28;20235;-77
2022/06/06 20:29:48;;;;;;;6.70;6.15;;;;;;;16.38;100.00;63693.06;5078207;28;20230;-79
2022/06/06 20:32:31;;;;;;;9.63;7.20;;;;;;;16.37;100.00;63689.44;5072015;28;20224;-80
2022/06/06 20:35:11;;;;;;;7.80;6.68;;;;;;;16.33;100.00;63685.81;5076480;28;20200;-78
2022/06/06 20:37:55;;;;;;;7.15;6.45;;;;;;;16.31;100.00;63680.66;5087701;28;20271;-79
2022/06/06 20:40:23;;;;;;;8.57;7.03;;;;;;;16.34;100.00;63689.44;5073788;28;20220;-78
2022/06/06 20:42:54;;;;;;;7.95;7.10;;;;;;;16.31;100.00;63688.38;5080081;28;20216;-78
2022/06/06 20:45:29;;;;;;;7.28;6.43;;;;;;;16.31;100.00;63688.88;5073836;28;20216;-79
2022/06/06 20:47:56;;;;;;;7.70;6.78;;;;;;;16.32;100.00;63684.25;5069344;28;20254;-79
2022/06/06 20:50:31;;;;;;;7.90;7.10;;;;;;;16.27;100.00;63679.06;5073698;28;20196;-78
2022/06/06 20:53:02;;;;;;;14.57;6.65;;;;;;;16.24;100.00;63670.78;5080645;28;20189;-77
2022/06/06 20:55:32;;;;;;;6.80;5.88;;;;;;;16.23;100.00;63674.88;5080679;28;20210;-77
2022/06/06 20:58:06;;;;;;;9.27;6.15;;;;;;;16.18;100.00;63673.31;5081219;28;20216;-77
2022/06/06 21:00:35;;;;;;;6.65;5.47;;;;;;;16.14;100.00;63660.91;5082646;28;20206;-78
2022/06/06 21:03:03;;;;;;;7.03;6.32;;;;;;;16.10;100.00;63667.03;5078125;28;20209;-78
2022/06/06 21:05:42;;;;;;;6.97;6.00;;;;;;;16.03;100.00;63654.63;5072438;28;20268;-77
2022/06/06 21:08:15;;;;;;;5.72;5.22;;;;;;;16.04;100.00;63655.66;5083550;28;20224;-77
2022/06/06 21:10:43;;;;;;;6.32;5.72;;;;;;;15.99;100.00;63647.88;5075386;28;20192;-77
2022/06/06 21:13:10;;;;;;;5.80;5.25;;;;;;;15.96;100.00;63650.41;5071284;28;20205;-77
2022/06/06 21:15:39;;;;;;;5.82;4.82;;;;;;;15.92;100.00;63640.59;5098639;28;20432;-78
2022/06/06 21:18:07;;;;;;;8.48;5.93;;;;;;;15.87;100.00;63641.06;5075116;28;20236;-77
2022/06/06 21:20:37;;;;;;;5.90;5.40;;;;;;;15.85;100.00;63644.13;5066420;28;20246;-77
2022/06/06 21:23:05;;;;;;;6.20;5.57;;;;;;;15.84;100.00;63635.38;5067477;28;20220;-77
2022/06/06 21:25:32;;;;;;;8.23;5.90;;;;;;;15.77;100.00;63630.66;5070746;28;20501;-77
2022/06/06 21:27:59;;;;;;;5.38;4.97;;;;;;;15.79;100.00;63630.16;5074348;28;20251;-77
2022/06/06 21:30:27;;;;;;;7.85;5.35;;;;;;;15.77;100.00;63625.53;5076346;28;20208;-78
2022/06/06 21:32:53;;;;;;;8.15;5.97;;;;;;;15.73;100.00;63623.94;5066261;28;20285;-77
2022/06/06 21:35:20;;;;;;;5.00;4.53;;;;;;;15.70;100.00;63623.38;5074200;28;20201;-79
2022/06/06 21:37:48;;;;;;;5.10;4.70;;;;;;;15.65;100.00;63615.59;5070883;28;20411;-77
2022/06/06 21:40:15;;;;;;;5.13;4.63;;;;;;;15.60;100.00;63610.41;5068435;28;20370;-78
2022/06/06 21:42:44;;;;;;;5.55;5.05;;;;;;;15.53;100.00;63605.69;5083691;28;20402;-77
2022/06/06 21:45:11;;;;;;;5.15;4.75;;;;;;;15.55;100.00;63604.72;5077277;28;20212;-77
2022/06/06 21:47:38;;;;;;;4.97;4.57;;;;;;;15.47;100.00;63594.34;5082444;28;20233;-77
2022/06/06 21:50:07;;;;;;;6.18;4.88;;;;;;;15.41;100.00;63593.22;5076521;28;20230;-78
2022/06/06 21:52:33;;;;;;;5.57;4.68;;;;;;;15.36;100.00;63588.00;5077269;28;20528;-77
2022/06/06 21:55:02;;;;;;;4.90;4.53;;;;;;;15.38;100.00;63592.66;5077967;28;20193;-77
2022/06/06 21:57:29;;;;;;;5.30;5.00;;;;;;;15.34;100.00;63585.44;5065848;28;20221;-78
2022/06/06 21:59:56;;;;;;;5.97;5.47;;;;;;;15.29;100.00;63575.09;5066674;28;20197;-78
2022/06/06 22:02:22;;;;;;;5.53;5.00;;;;;;;15.26;100.00;63571.97;5078819;28;20415;-77
2022/06/06 22:04:49;;;;;;;7.55;5.43;;;;;;;15.25;100.00;63579.16;5083155;28;20220;-77
2022/06/06 22:07:18;;;;;;;6.97;4.90;;;;;;;15.27;100.00;63573.03;5065370;28;20239;-78
2022/06/06 22:09:45;;;;;;;5.30;4.90;;;;;;;15.23;100.00;63571.94;5084065;28;20193;-79
2022/06/06 22:12:16;;;;;;;5.10;4.70;;;;;;;15.19;100.00;63567.25;5067828;28;20436;-78
2022/06/06 22:14:45;;;;;;;5.22;4.82;;;;;;;15.12;100.00;63557.44;5073196;28;20196;-77
2022/06/06 22:17:12;;;;;;;6.90;5.28;;;;;;;15.12;100.00;63560.00;5078569;28;20212;-77
2022/06/06 22:19:39;;;;;;;4.85;4.55;;;;;;;15.12;100.00;63557.94;5075906;28;20250;-76
2022/06/06 22:22:08;;;;;;;6.20;4.75;;;;;;;15.16;100.00;63564.66;5065546;28;20231;-77
2022/06/06 22:24:36;;;;;;;5.00;4.35;;;;;;;15.11;100.00;63556.91;5065678;28;20408;-77
2022/06/06 22:27:04;;;;;;;5.15;4.72;;;;;;;15.12;100.00;63563.06;5064447;28;20417;-79
2022/06/06 22:29:32;;;;;;;7.32;4.63;;;;;;;15.06;100.00;63556.84;5076696;28;20228;-77
2022/06/06 22:31:59;;;;;;;5.45;5.03;;;;;;;15.07;100.00;63555.31;5085371;28;20230;-77
2022/06/06 22:34:27;;;;;;;5.30;4.90;;;;;;;15.01;100.00;63549.59;5068358;28;20197;-78